Time;durP1;ratioP1;P1;durP2;ratioP2;P2;SDS_P1;SDS_P2;PMS_P1;PMS_P2;Temp;Humidity;BMP_temperature;BMP_pressure;BME280_temperature;BME280_humidity;BME280_pressure;Samples;Min_cycle;Max_cycle;Signal;HPM_P1;HPM_P2
2021/07/16 00:00:49;;;;;;;25.15;9.65;;;;;;;;;;4979894;28;20066;-64
2021/07/16 00:03:15;;;;;;;18.13;8.75;;;;;;;;;;4977953;28;20114;-64
2021/07/16 00:05:41;;;;;;;23.35;10.15;;;;;;;;;;4973741;28;20058;-64
2021/07/16 00:08:07;;;;;;;29.13;9.38;;;;;;;;;;4974072;28;20034;-64
2021/07/16 00:10:34;;;;;;;28.08;10.82;;;;;;;;;;4978008;28;20466;-64
2021/07/16 00:13:00;;;;;;;29.63;11.32;;;;;;;;;;4979592;28;20500;-64
2021/07/16 00:15:26;;;;;;;23.98;11.10;;;;;;;;;;4974135;28;20026;-64
2021/07/16 00:17:52;;;;;;;22.48;7.97;;;;;;;;;;4980974;28;20026;-64
2021/07/16 00:20:19;;;;;;;30.58;10.63;;;;;;;;;;4984050;28;20022;-64
2021/07/16 00:22:45;;;;;;;25.60;9.98;;;;;;;;;;4980961;28;20497;-64
2021/07/16 00:25:11;;;;;;;26.95;10.40;;;;;;;;;;4983273;28;20026;-64
2021/07/16 00:27:37;;;;;;;29.92;10.48;;;;;;;;;;4978077;28;20034;-67
2021/07/16 00:30:05;;;;;;;22.17;9.63;;;;;;;;;;4982295;28;20481;-64
2021/07/16 00:32:31;;;;;;;25.73;9.93;;;;;;;;;;4971229;28;20092;-64
2021/07/16 00:34:57;;;;;;;19.40;9.80;;;;;;;;;;4981298;28;20513;-64
2021/07/16 00:37:23;;;;;;;23.02;9.80;;;;;;;;;;4977744;28;20026;-63
2021/07/16 00:39:49;;;;;;;28.48;9.98;;;;;;;;;;4979854;28;20046;-64
2021/07/16 00:42:15;;;;;;;23.80;10.57;;;;;;;;;;4981912;28;20201;-65
2021/07/16 00:44:41;;;;;;;22.33;9.48;;;;;;;;;;4977253;28;20038;-64
2021/07/16 00:47:08;;;;;;;24.92;9.90;;;;;;;;;;4981046;28;20042;-64
2021/07/16 00:49:35;;;;;;;26.23;9.88;;;;;;;;;;4980756;28;20030;-64
2021/07/16 00:52:01;;;;;;;20.38;9.73;;;;;;;;;;4978377;28;20539;-64
2021/07/16 00:54:27;;;;;;;21.35;8.90;;;;;;;;;;4968786;28;20023;-64
2021/07/16 00:56:54;;;;;;;19.65;8.30;;;;;;;;;;4975824;28;20115;-64
2021/07/16 00:59:20;;;;;;;21.38;9.27;;;;;;;;;;4984369;28;20023;-64
2021/07/16 01:01:46;;;;;;;25.27;9.30;;;;;;;;;;4981420;28;20111;-65
2021/07/16 01:04:12;;;;;;;23.20;10.02;;;;;;;;;;4974668;28;20023;-64
2021/07/16 01:06:38;;;;;;;22.27;9.45;;;;;;;;;;4980158;28;20520;-64
2021/07/16 01:09:05;;;;;;;29.35;9.90;;;;;;;;;;4980362;28;20022;-64
2021/07/16 01:11:31;;;;;;;24.48;10.43;;;;;;;;;;4974574;28;20080;-64
2021/07/16 01:13:57;;;;;;;23.75;9.02;;;;;;;;;;4984710;28;20034;-64
2021/07/16 01:16:23;;;;;;;27.58;10.27;;;;;;;;;;4976624;28;20069;-64
2021/07/16 01:18:50;;;;;;;24.05;9.63;;;;;;;;;;4976701;28;20038;-63
2021/07/16 01:21:16;;;;;;;21.42;9.40;;;;;;;;;;4973099;28;20045;-64
2021/07/16 01:23:42;;;;;;;20.00;8.65;;;;;;;;;;4974017;28;20065;-64
2021/07/16 01:26:09;;;;;;;25.13;9.15;;;;;;;;;;4972853;28;20022;-64
2021/07/16 01:28:36;;;;;;;22.10;9.73;;;;;;;;;;4982747;28;20038;-64
2021/07/16 01:31:03;;;;;;;29.40;9.85;;;;;;;;;;4989870;28;20444;-64
2021/07/16 01:33:29;;;;;;;17.05;8.48;;;;;;;;;;4958889;28;20043;-63
2021/07/16 01:35:55;;;;;;;25.73;8.65;;;;;;;;;;4962557;28;20138;-64
2021/07/16 01:38:22;;;;;;;23.08;8.10;;;;;;;;;;4965696;28;20046;-64
2021/07/16 01:40:48;;;;;;;19.00;8.40;;;;;;;;;;4946598;28;20038;-64
2021/07/16 01:43:14;;;;;;;21.77;8.48;;;;;;;;;;4967747;28;20051;-64
2021/07/16 01:45:41;;;;;;;19.60;7.72;;;;;;;;;;4941390;28;20024;-64
2021/07/16 01:48:09;;;;;;;17.20;7.80;;;;;;;;;;4967098;28;20050;-64
2021/07/16 01:50:36;;;;;;;16.30;7.25;;;;;;;;;;4961641;28;20416;-64
2021/07/16 01:53:03;;;;;;;18.90;8.57;;;;;;;;;;4965166;28;20042;-64
2021/07/16 01:55:30;;;;;;;18.00;8.20;;;;;;;;;;4958492;28;20059;-64
2021/07/16 01:57:57;;;;;;;20.48;7.53;;;;;;;;;;4957847;28;20384;-64
2021/07/16 02:00:25;;;;;;;29.08;9.82;;;;;;;;;;4966155;28;20099;-64
2021/07/16 02:02:57;;;;;;;24.77;8.43;;;;;;;;;;4963219;28;20035;-64
2021/07/16 02:05:24;;;;;;;21.83;8.30;;;;;;;;;;4973128;28;20490;-64
2021/07/16 02:07:53;;;;;;;18.35;8.90;;;;;;;;;;4984047;28;20549;-64
2021/07/16 02:10:25;;;;;;;20.45;8.05;;;;;;;;;;4974495;28;20024;-64
2021/07/16 02:12:51;;;;;;;27.92;9.27;;;;;;;;;;4985877;28;20034;-64
2021/07/16 02:15:18;;;;;;;22.33;9.02;;;;;;;;;;4980195;28;20044;-64
2021/07/16 02:17:45;;;;;;;25.40;8.52;;;;;;;;;;4975360;28;20110;-64
2021/07/16 02:20:25;;;;;;;26.08;9.98;;;;;;;;;;4984458;28;20080;-64
2021/07/16 02:22:52;;;;;;;22.83;9.95;;;;;;;;;;4983221;28;20023;-64
2021/07/16 02:25:18;;;;;;;23.48;10.07;;;;;;;;;;4980387;28;20054;-64
2021/07/16 02:27:49;;;;;;;28.88;10.63;;;;;;;;;;4977578;28;20100;-64
2021/07/16 02:30:16;;;;;;;32.42;10.27;;;;;;;;;;4988369;28;20184;-64
2021/07/16 02:32:42;;;;;;;26.10;10.50;;;;;;;;;;4981218;28;20030;-64
2021/07/16 02:35:09;;;;;;;23.35;9.85;;;;;;;;;;4984032;28;20026;-64
2021/07/16 02:37:35;;;;;;;24.98;9.52;;;;;;;;;;4977529;28;20443;-64
2021/07/16 02:40:01;;;;;;;23.13;9.45;;;;;;;;;;4975968;28;20121;-64
2021/07/16 02:42:27;;;;;;;23.58;10.07;;;;;;;;;;4981313;28;20450;-64
2021/07/16 02:44:53;;;;;;;23.15;9.95;;;;;;;;;;4973621;28;20051;-64
2021/07/16 02:47:19;;;;;;;22.30;9.43;;;;;;;;;;4980245;28;20041;-64
2021/07/16 02:49:45;;;;;;;22.13;8.85;;;;;;;;;;4976725;28;20091;-64
2021/07/16 02:52:13;;;;;;;29.20;11.00;;;;;;;;;;4982931;28;20022;-63
2021/07/16 02:54:40;;;;;;;24.77;10.15;;;;;;;;;;4988985;28;20084;-64
2021/07/16 02:57:06;;;;;;;29.48;11.02;;;;;;;;;;4982700;28;20068;-64
2021/07/16 02:59:32;;;;;;;22.73;9.68;;;;;;;;;;4983972;28;20026;-63
2021/07/16 03:01:58;;;;;;;21.63;9.95;;;;;;;;;;4982415;28;20469;-64
2021/07/16 03:04:25;;;;;;;25.65;11.15;;;;;;;;;;4979653;28;20027;-64
2021/07/16 03:06:51;;;;;;;22.48;10.57;;;;;;;;;;4979545;28;20382;-64
2021/07/16 03:09:17;;;;;;;23.00;10.00;;;;;;;;;;4981898;28;20390;-64
2021/07/16 03:11:43;;;;;;;23.15;10.98;;;;;;;;;;4976341;28;20026;-64
2021/07/16 03:14:09;;;;;;;17.65;9.50;;;;;;;;;;4975126;28;20027;-64
2021/07/16 03:16:35;;;;;;;29.40;11.98;;;;;;;;;;4975247;28;20079;-64
2021/07/16 03:19:02;;;;;;;28.27;10.75;;;;;;;;;;4988013;28;20451;-63
2021/07/16 03:21:28;;;;;;;29.70;10.55;;;;;;;;;;4975540;28;20448;-64
2021/07/16 03:23:53;;;;;;;25.70;10.63;;;;;;;;;;4986522;28;20069;-64
2021/07/16 03:26:20;;;;;;;25.08;11.13;;;;;;;;;;4979475;28;20053;-64
2021/07/16 03:28:46;;;;;;;27.05;11.13;;;;;;;;;;4982560;28;20053;-64
2021/07/16 03:31:12;;;;;;;28.48;11.07;;;;;;;;;;4987185;28;20026;-64
2021/07/16 03:33:38;;;;;;;23.80;11.60;;;;;;;;;;4986123;28;20030;-64
2021/07/16 03:36:06;;;;;;;25.58;11.05;;;;;;;;;;4983856;28;20061;-64
2021/07/16 03:38:32;;;;;;;27.27;10.70;;;;;;;;;;4979057;28;20031;-64
2021/07/16 03:41:00;;;;;;;27.35;10.05;;;;;;;;;;4978630;28;20026;-64
2021/07/16 03:43:27;;;;;;;30.00;11.13;;;;;;;;;;4979047;28;20080;-64
2021/07/16 03:45:53;;;;;;;25.60;11.20;;;;;;;;;;4982007;28;20470;-64
2021/07/16 03:48:19;;;;;;;24.63;10.73;;;;;;;;;;4975000;28;20046;-64
2021/07/16 03:50:47;;;;;;;26.23;10.73;;;;;;;;;;4982284;28;20505;-64
2021/07/16 03:53:14;;;;;;;24.52;10.57;;;;;;;;;;4990196;28;20027;-64
2021/07/16 03:55:40;;;;;;;27.45;10.02;;;;;;;;;;4981359;28;20030;-64
2021/07/16 03:58:06;;;;;;;22.98;9.27;;;;;;;;;;4972960;28;20030;-64
2021/07/16 04:00:33;;;;;;;20.15;9.57;;;;;;;;;;4967909;28;20031;-64
2021/07/16 04:03:00;;;;;;;19.77;10.13;;;;;;;;;;4981394;28;20065;-64
2021/07/16 04:05:27;;;;;;;24.27;10.20;;;;;;;;;;4983705;28;20561;-64
2021/07/16 04:08:01;;;;;;;22.15;11.00;;;;;;;;;;4980998;28;20182;-64
2021/07/16 04:10:29;;;;;;;21.90;10.77;;;;;;;;;;4979364;28;20079;-64
2021/07/16 04:12:56;;;;;;;28.67;11.95;;;;;;;;;;4981057;28;20042;-64
2021/07/16 04:15:25;;;;;;;29.48;10.50;;;;;;;;;;4973246;28;20106;-64
2021/07/16 04:17:52;;;;;;;23.00;9.73;;;;;;;;;;4969893;28;20272;-63
2021/07/16 04:20:18;;;;;;;24.35;10.52;;;;;;;;;;4972111;28;20023;-64
2021/07/16 04:22:47;;;;;;;25.52;10.88;;;;;;;;;;4976344;28;20030;-64
2021/07/16 04:25:19;;;;;;;27.60;11.80;;;;;;;;;;4977456;28;20026;-64
2021/07/16 04:27:46;;;;;;;29.02;11.32;;;;;;;;;;4976189;28;20038;-64
2021/07/16 04:30:14;;;;;;;30.60;12.68;;;;;;;;;;4983421;28;20346;-64
2021/07/16 04:32:41;;;;;;;32.10;12.63;;;;;;;;;;4977387;28;20023;-63
2021/07/16 04:35:08;;;;;;;28.73;12.05;;;;;;;;;;4981174;28;20105;-64
2021/07/16 04:37:37;;;;;;;30.10;12.60;;;;;;;;;;4982930;28;20084;-64
2021/07/16 04:40:05;;;;;;;30.02;12.30;;;;;;;;;;4980536;28;20377;-64
2021/07/16 04:42:31;;;;;;;27.65;12.73;;;;;;;;;;4983547;28;20030;-64
2021/07/16 04:44:57;;;;;;;28.08;11.82;;;;;;;;;;4976823;28;20031;-64
2021/07/16 04:47:23;;;;;;;29.55;12.07;;;;;;;;;;4985143;28;20050;-64
2021/07/16 04:49:49;;;;;;;27.55;12.27;;;;;;;;;;4977285;28;20062;-64
2021/07/16 04:52:15;;;;;;;22.80;10.70;;;;;;;;;;4984132;28;20034;-64
2021/07/16 04:54:41;;;;;;;29.05;11.80;;;;;;;;;;4982054;28;20429;-63
2021/07/16 04:57:08;;;;;;;23.58;11.05;;;;;;;;;;4980312;28;20080;-64
2021/07/16 04:59:35;;;;;;;23.42;10.70;;;;;;;;;;4974979;28;20499;-64
2021/07/16 05:02:01;;;;;;;26.17;11.48;;;;;;;;;;4981603;28;20054;-64
2021/07/16 05:04:27;;;;;;;28.98;10.88;;;;;;;;;;4986669;28;20030;-64
2021/07/16 05:06:53;;;;;;;24.55;11.00;;;;;;;;;;4976890;28;20434;-64
2021/07/16 05:09:19;;;;;;;27.13;10.40;;;;;;;;;;4982528;28;20109;-64
2021/07/16 05:11:45;;;;;;;25.83;11.70;;;;;;;;;;4983009;28;20054;-65
2021/07/16 05:14:11;;;;;;;24.45;11.57;;;;;;;;;;4983720;28;20038;-65
2021/07/16 05:16:37;;;;;;;25.95;11.63;;;;;;;;;;4983352;28;20109;-65
2021/07/16 05:19:04;;;;;;;24.13;12.23;;;;;;;;;;4981559;28;20034;-66
2021/07/16 05:21:32;;;;;;;25.73;10.90;;;;;;;;;;4980383;28;20057;-67
2021/07/16 05:23:58;;;;;;;29.50;10.43;;;;;;;;;;4979483;28;20070;-66
2021/07/16 05:26:24;;;;;;;26.02;11.32;;;;;;;;;;4975128;28;20023;-66
2021/07/16 05:28:50;;;;;;;26.17;11.45;;;;;;;;;;4971972;28;20263;-67
2021/07/16 05:31:17;;;;;;;32.95;11.93;;;;;;;;;;4977044;28;20031;-67
2021/07/16 05:33:43;;;;;;;32.65;13.57;;;;;;;;;;4972726;28;20038;-66
2021/07/16 05:36:09;;;;;;;28.42;10.98;;;;;;;;;;4977381;28;20034;-67
2021/07/16 05:38:37;;;;;;;26.52;11.82;;;;;;;;;;4978114;28;20026;-67
2021/07/16 05:41:03;;;;;;;26.25;11.68;;;;;;;;;;4983036;28;20018;-66
2021/07/16 05:43:30;;;;;;;25.10;11.32;;;;;;;;;;4990160;28;20030;-67
2021/07/16 05:45:56;;;;;;;23.80;11.35;;;;;;;;;;4984941;28;20034;-67
2021/07/16 05:48:23;;;;;;;21.45;9.85;;;;;;;;;;4983463;28;20117;-66
2021/07/16 05:50:49;;;;;;;26.75;10.25;;;;;;;;;;4985907;28;20102;-66
2021/07/16 05:53:15;;;;;;;26.83;10.30;;;;;;;;;;4987753;28;20025;-67
2021/07/16 05:55:41;;;;;;;27.05;9.98;;;;;;;;;;4985819;28;20033;-67
2021/07/16 05:58:07;;;;;;;19.85;9.77;;;;;;;;;;4978818;28;20030;-67
2021/07/16 06:00:34;;;;;;;24.77;11.05;;;;;;;;;;4983666;28;20087;-68
2021/07/16 06:03:00;;;;;;;24.83;11.63;;;;;;;;;;4987499;28;20048;-66
2021/07/16 06:05:26;;;;;;;22.40;10.80;;;;;;;;;;4987415;28;20050;-67
2021/07/16 06:07:52;;;;;;;26.38;10.20;;;;;;;;;;4987694;28;20069;-67
2021/07/16 06:10:18;;;;;;;19.30;9.18;;;;;;;;;;4986015;28;20023;-67
2021/07/16 06:12:45;;;;;;;26.65;10.40;;;;;;;;;;4984368;28;20473;-67
2021/07/16 06:15:11;;;;;;;27.08;10.00;;;;;;;;;;4982099;28;20105;-67
2021/07/16 06:17:37;;;;;;;20.92;10.02;;;;;;;;;;4980089;28;20030;-68
2021/07/16 06:20:05;;;;;;;20.48;10.40;;;;;;;;;;4972921;28;20022;-67
2021/07/16 06:22:31;;;;;;;19.90;9.48;;;;;;;;;;4978269;28;20026;-67
2021/07/16 06:24:59;;;;;;;21.48;9.77;;;;;;;;;;4976146;28;20435;-66
2021/07/16 06:27:25;;;;;;;21.55;9.32;;;;;;;;;;4974910;28;20156;-66
2021/07/16 06:29:52;;;;;;;23.63;9.95;;;;;;;;;;4973869;28;20075;-66
2021/07/16 06:32:19;;;;;;;22.85;9.23;;;;;;;;;;4983196;28;20050;-66
2021/07/16 06:34:45;;;;;;;24.88;8.60;;;;;;;;;;4985708;28;20062;-67
2021/07/16 06:37:11;;;;;;;22.20;9.60;;;;;;;;;;4980419;28;20022;-66
2021/07/16 06:39:37;;;;;;;25.48;10.55;;;;;;;;;;4987285;28;20034;-67
2021/07/16 06:42:03;;;;;;;23.05;9.00;;;;;;;;;;4980611;28;20022;-66
2021/07/16 06:44:30;;;;;;;27.48;9.05;;;;;;;;;;4981131;28;20061;-66
2021/07/16 06:46:56;;;;;;;24.08;8.98;;;;;;;;;;4977618;28;20091;-66
2021/07/16 06:49:26;;;;;;;27.08;9.30;;;;;;;;;;4980377;28;20040;-66
2021/07/16 06:51:52;;;;;;;29.25;9.05;;;;;;;;;;4982786;28;20150;-67
2021/07/16 06:54:18;;;;;;;24.63;9.68;;;;;;;;;;4986052;28;20038;-66
2021/07/16 06:56:44;;;;;;;30.05;9.45;;;;;;;;;;4978146;28;20034;-66
2021/07/16 06:59:12;;;;;;;22.00;9.00;;;;;;;;;;4984558;28;20048;-66
2021/07/16 07:01:38;;;;;;;27.08;9.55;;;;;;;;;;4984658;28;20046;-67
2021/07/16 07:04:04;;;;;;;29.45;10.82;;;;;;;;;;4986059;28;20038;-66
2021/07/16 07:06:30;;;;;;;22.50;9.68;;;;;;;;;;4982815;28;20051;-67
2021/07/16 07:08:56;;;;;;;24.27;10.80;;;;;;;;;;4984789;28;20528;-66
2021/07/16 07:11:22;;;;;;;23.95;10.95;;;;;;;;;;4983100;28;20126;-66
2021/07/16 07:13:48;;;;;;;21.52;9.35;;;;;;;;;;4980614;28;20106;-66
2021/07/16 07:16:16;;;;;;;26.02;9.07;;;;;;;;;;4986657;28;20030;-66
2021/07/16 07:18:42;;;;;;;25.05;10.52;;;;;;;;;;4979634;28;20062;-66
2021/07/16 07:21:09;;;;;;;25.52;9.07;;;;;;;;;;4976673;28;20030;-66
2021/07/16 07:23:35;;;;;;;21.67;8.77;;;;;;;;;;4986546;28;20080;-66
2021/07/16 07:26:01;;;;;;;25.67;9.80;;;;;;;;;;4983435;28;20022;-67
2021/07/16 07:28:27;;;;;;;28.75;10.38;;;;;;;;;;4980542;28;20131;-66
2021/07/16 07:30:53;;;;;;;26.52;8.95;;;;;;;;;;4983504;28;20022;-66
2021/07/16 07:33:19;;;;;;;25.38;9.07;;;;;;;;;;4981289;28;20032;-66
2021/07/16 07:35:45;;;;;;;19.80;8.65;;;;;;;;;;4982063;28;20034;-66
2021/07/16 07:38:11;;;;;;;22.23;9.00;;;;;;;;;;4980061;28;20417;-66
2021/07/16 07:40:37;;;;;;;20.60;8.57;;;;;;;;;;4975823;28;20030;-66
2021/07/16 07:43:05;;;;;;;23.17;8.48;;;;;;;;;;4976174;28;20018;-66
2021/07/16 07:45:31;;;;;;;19.33;8.68;;;;;;;;;;4976082;28;20022;-66
2021/07/16 07:47:58;;;;;;;19.92;7.50;;;;;;;;;;4975779;28;20441;-66
2021/07/16 07:50:24;;;;;;;19.13;7.18;;;;;;;;;;4979037;28;20500;-66
2021/07/16 07:52:51;;;;;;;26.08;7.97;;;;;;;;;;4971920;28;20038;-67
2021/07/16 07:55:21;;;;;;;20.17;7.22;;;;;;;;;;4978664;28;20057;-66
2021/07/16 07:57:47;;;;;;;21.02;7.60;;;;;;;;;;4974264;28;20037;-66
2021/07/16 08:00:15;;;;;;;18.73;8.48;;;;;;;;;;4984371;28;20095;-66
2021/07/16 08:02:41;;;;;;;27.33;8.43;;;;;;;;;;4977063;28;20031;-66
2021/07/16 08:05:08;;;;;;;23.08;8.38;;;;;;;;;;4985098;28;20039;-67
2021/07/16 08:07:38;;;;;;;21.02;7.60;;;;;;;;;;4980904;28;20074;-66
2021/07/16 08:10:08;;;;;;;24.63;8.52;;;;;;;;;;4983478;28;20066;-66
2021/07/16 08:12:33;;;;;;;;;;;;;;;;;;4986621;28;20019;-66
2021/07/16 08:15:02;;;;;;;22.45;9.57;;;;;;;;;;4981343;28;20004;-66
2021/07/16 08:17:28;;;;;;;30.15;10.20;;;;;;;;;;4978011;28;20031;-66
2021/07/16 08:19:54;;;;;;;23.90;9.55;;;;;;;;;;4970409;28;20421;-67
2021/07/16 08:22:20;;;;;;;20.92;8.38;;;;;;;;;;4979251;28;20030;-66
2021/07/16 08:24:46;;;;;;;20.58;8.52;;;;;;;;;;4986931;28;20041;-66
2021/07/16 08:27:12;;;;;;;23.27;9.45;;;;;;;;;;4977854;28;20049;-66
2021/07/16 08:29:38;;;;;;;25.25;9.70;;;;;;;;;;4977652;28;20080;-66
2021/07/16 08:32:04;;;;;;;22.38;8.30;;;;;;;;;;4976209;28;20022;-67
2021/07/16 08:34:30;;;;;;;24.27;10.07;;;;;;;;;;4981339;28;20106;-66
2021/07/16 08:36:57;;;;;;;23.67;9.70;;;;;;;;;;4978030;28;20033;-66
2021/07/16 08:39:23;;;;;;;26.23;9.77;;;;;;;;;;4980738;28;20482;-66
2021/07/16 08:41:50;;;;;;;19.98;10.55;;;;;;;;;;4984564;28;20026;-67
2021/07/16 08:44:16;;;;;;;22.45;9.18;;;;;;;;;;4983195;28;20079;-66
2021/07/16 08:46:44;;;;;;;22.98;9.05;;;;;;;;;;4978191;28;20038;-66
2021/07/16 08:49:11;;;;;;;27.83;8.95;;;;;;;;;;4978268;28;20104;-66
2021/07/16 08:51:38;;;;;;;31.15;9.55;;;;;;;;;;4981173;28;20393;-66
2021/07/16 08:54:05;;;;;;;25.90;10.90;;;;;;;;;;4975376;28;20117;-66
2021/07/16 08:56:35;;;;;;;19.20;8.25;;;;;;;;;;4971976;28;20035;-66
2021/07/16 08:59:05;;;;;;;26.65;12.90;;;;;;;;;;4971074;28;20072;-66
2021/07/16 09:01:32;;;;;;;28.02;12.05;;;;;;;;;;4977711;28;20304;-66
2021/07/16 09:04:02;;;;;;;29.30;12.38;;;;;;;;;;4968348;28;20023;-66
2021/07/16 09:07:06;;;;;;;25.60;11.63;;;;;;;;;;4970073;28;20171;-65
2021/07/16 09:09:36;;;;;;;24.20;11.02;;;;;;;;;;4917486;29;20515;-66
2021/07/16 09:12:05;;;;;;;27.30;13.07;;;;;;;;;;4913885;28;20059;-66
2021/07/16 09:14:32;;;;;;;24.50;9.85;;;;;;;;;;4918773;28;20051;-66
2021/07/16 09:17:02;;;;;;;21.98;10.32;;;;;;;;;;4916259;28;20035;-66
2021/07/16 09:19:30;;;;;;;23.13;8.45;;;;;;;;;;4920467;29;20035;-66
2021/07/16 09:22:00;;;;;;;22.52;7.35;;;;;;;;;;4913760;29;20122;-66
2021/07/16 09:24:28;;;;;;;18.08;7.20;;;;;;;;;;4898349;28;20036;-66
2021/07/16 09:26:54;;;;;;;21.92;8.27;;;;;;;;;;4921859;29;20131;-66
2021/07/16 09:29:27;;;;;;;21.10;8.48;;;;;;;;;;4925557;29;20101;-66
2021/07/16 09:32:02;;;;;;;18.33;7.15;;;;;;;;;;4920285;29;20024;-66
2021/07/16 09:34:28;;;;;;;17.67;7.85;;;;;;;;;;4915428;29;20061;-66
2021/07/16 09:36:54;;;;;;;22.88;8.55;;;;;;;;;;4921160;29;20050;-66
2021/07/16 09:39:24;;;;;;;19.52;8.55;;;;;;;;;;4925778;28;20067;-66
2021/07/16 09:41:52;;;;;;;20.13;7.15;;;;;;;;;;4977538;28;20022;-66
2021/07/16 09:44:28;;;;;;;15.07;6.30;;;;;;;;;;4975211;28;20151;-66
2021/07/16 09:47:07;;;;;;;18.90;7.20;;;;;;;;;;4981058;28;20026;-66
2021/07/16 09:49:34;;;;;;;18.30;7.03;;;;;;;;;;4982894;28;20125;-66
2021/07/16 09:52:09;;;;;;;11.85;6.13;;;;;;;;;;4986121;28;20059;-66
2021/07/16 09:54:35;;;;;;;13.90;5.32;;;;;;;;;;4984821;28;20047;-66
2021/07/16 09:57:01;;;;;;;16.45;7.07;;;;;;;;;;4973170;28;20618;-66
2021/07/16 09:59:28;;;;;;;19.42;6.70;;;;;;;;;;4983762;28;20025;-66
2021/07/16 10:01:54;;;;;;;16.58;5.50;;;;;;;;;;4978964;28;20031;-66
2021/07/16 10:04:20;;;;;;;20.23;7.13;;;;;;;;;;4981751;28;20073;-66
2021/07/16 10:06:48;;;;;;;23.00;8.05;;;;;;;;;;4980606;28;20182;-66
2021/07/16 10:09:14;;;;;;;32.20;10.98;;;;;;;;;;4984392;28;20098;-66
2021/07/16 10:11:40;;;;;;;23.15;8.55;;;;;;;;;;4985547;28;20141;-66
2021/07/16 10:14:08;;;;;;;17.83;7.50;;;;;;;;;;4977000;28;20101;-66
2021/07/16 10:16:38;;;;;;;17.05;6.78;;;;;;;;;;4980438;28;20010;-66
2021/07/16 10:19:04;;;;;;;15.77;6.72;;;;;;;;;;4986893;28;20033;-66
2021/07/16 10:21:30;;;;;;;20.02;6.68;;;;;;;;;;4985197;28;20065;-66
2021/07/16 10:23:58;;;;;;;15.88;6.45;;;;;;;;;;4984492;28;20062;-66
2021/07/16 10:26:25;;;;;;;19.40;6.38;;;;;;;;;;4982017;28;20019;-66
2021/07/16 10:28:51;;;;;;;24.58;6.65;;;;;;;;;;4978742;28;20038;-66
2021/07/16 10:31:30;;;;;;;18.70;7.30;;;;;;;;;;4978401;28;20049;-66
2021/07/16 10:33:57;;;;;;;18.07;7.40;;;;;;;;;;4976915;28;20030;-66
2021/07/16 10:36:38;;;;;;;16.88;5.78;;;;;;;;;;4978106;28;20273;-66
2021/07/16 10:39:06;;;;;;;17.27;7.07;;;;;;;;;;4975752;28;20061;-66
2021/07/16 10:41:35;;;;;;;18.42;7.25;;;;;;;;;;4979870;28;22088;-66
2021/07/16 10:44:02;;;;;;;15.18;6.32;;;;;;;;;;4976826;28;20121;-66
2021/07/16 10:46:29;;;;;;;22.10;7.13;;;;;;;;;;4977795;28;20026;-66
2021/07/16 10:48:56;;;;;;;19.08;6.80;;;;;;;;;;4976537;28;20031;-66
2021/07/16 10:51:23;;;;;;;16.55;6.40;;;;;;;;;;4979261;28;20095;-66
2021/07/16 10:53:50;;;;;;;13.93;6.13;;;;;;;;;;4972933;28;20034;-66
2021/07/16 10:56:18;;;;;;;16.33;6.68;;;;;;;;;;4976630;28;20026;-66
2021/07/16 10:58:45;;;;;;;18.52;7.30;;;;;;;;;;4980808;28;20026;-66
2021/07/16 11:01:12;;;;;;;18.13;6.55;;;;;;;;;;4980079;28;20030;-66
2021/07/16 11:03:41;;;;;;;18.20;6.53;;;;;;;;;;4976613;28;20138;-66
2021/07/16 11:06:09;;;;;;;19.33;6.73;;;;;;;;;;4976690;28;20074;-66
2021/07/16 11:08:39;;;;;;;17.92;6.43;;;;;;;;;;4978387;28;20041;-66
2021/07/16 11:11:09;;;;;;;15.52;6.05;;;;;;;;;;4977981;28;20034;-66
2021/07/16 11:13:40;;;;;;;15.68;6.40;;;;;;;;;;4978517;28;20084;-66
2021/07/16 11:16:25;;;;;;;21.17;6.47;;;;;;;;;;4977180;28;20614;-66
2021/07/16 11:19:11;;;;;;;16.80;6.45;;;;;;;;;;4975621;28;20035;-66
2021/07/16 11:24:24;;;;;;;20.88;6.38;;;;;;;;;;4977095;28;20395;-66
2021/07/16 11:26:53;;;;;;;15.38;6.60;;;;;;;;;;4975269;28;20497;-66
2021/07/16 11:29:21;;;;;;;15.75;6.38;;;;;;;;;;4977697;28;20046;-66
2021/07/16 11:31:47;;;;;;;22.08;6.88;;;;;;;;;;4975641;28;20030;-66
2021/07/16 11:34:17;;;;;;;14.48;5.25;;;;;;;;;;4977271;28;20043;-66
2021/07/16 11:36:50;;;;;;;19.63;5.70;;;;;;;;;;4976184;28;20045;-66
2021/07/16 11:39:30;;;;;;;21.15;6.25;;;;;;;;;;4977332;28;20477;-66
2021/07/16 11:41:57;;;;;;;17.65;6.68;;;;;;;;;;4978251;28;20109;-66
2021/07/16 11:44:27;;;;;;;24.50;8.55;;;;;;;;;;4979082;28;20023;-66
2021/07/16 11:46:55;;;;;;;16.83;6.47;;;;;;;;;;4979366;28;20386;-66
2021/07/16 11:49:26;;;;;;;14.75;5.97;;;;;;;;;;4983288;28;20481;-66
2021/07/16 11:52:02;;;;;;;18.98;7.00;;;;;;;;;;4977018;28;20370;-66
2021/07/16 11:54:29;;;;;;;16.48;6.57;;;;;;;;;;4975727;28;20030;-66
2021/07/16 11:56:56;;;;;;;17.45;7.28;;;;;;;;;;4974984;28;20393;-66
2021/07/16 11:59:23;;;;;;;23.15;7.18;;;;;;;;;;4985838;28;20018;-66
2021/07/16 12:02:08;;;;;;;20.05;6.72;;;;;;;;;;4982788;28;20026;-66
2021/07/16 12:04:34;;;;;;;18.30;6.00;;;;;;;;;;4972619;28;20081;-66
2021/07/16 12:07:01;;;;;;;21.88;9.18;;;;;;;;;;4979061;28;20058;-66
2021/07/16 12:09:41;;;;;;;19.77;7.90;;;;;;;;;;4984470;28;20148;-66
2021/07/16 12:12:10;;;;;;;21.30;8.32;;;;;;;;;;4981412;28;20026;-66
2021/07/16 12:14:45;;;;;;;17.23;7.40;;;;;;;;;;4984061;28;20031;-66
2021/07/16 12:17:11;;;;;;;21.25;9.43;;;;;;;;;;4979592;28;20018;-66
2021/07/16 12:19:37;;;;;;;21.58;8.52;;;;;;;;;;4977596;28;20026;-66
2021/07/16 12:22:03;;;;;;;20.20;8.05;;;;;;;;;;4980014;28;20061;-66
2021/07/16 12:24:32;;;;;;;18.40;8.40;;;;;;;;;;4980569;28;20076;-66
2021/07/16 12:27:07;;;;;;;17.48;7.95;;;;;;;;;;4981484;28;20106;-66
2021/07/16 12:29:34;;;;;;;18.58;7.38;;;;;;;;;;4978043;28;20042;-66
2021/07/16 12:32:00;;;;;;;20.00;7.43;;;;;;;;;;4983517;28;20091;-66
2021/07/16 12:34:27;;;;;;;21.85;7.93;;;;;;;;;;4974194;28;20053;-66
2021/07/16 12:37:09;;;;;;;17.42;7.97;;;;;;;;;;4983458;28;20367;-66
2021/07/16 12:39:35;;;;;;;23.02;5.65;;;;;;;;;;4985692;28;20034;-66
2021/07/16 12:42:11;;;;;;;16.95;7.30;;;;;;;;;;4983536;28;20033;-66
2021/07/16 12:44:39;;;;;;;17.85;7.50;;;;;;;;;;4978952;28;21288;-66
2021/07/16 12:47:06;;;;;;;24.80;7.82;;;;;;;;;;4983342;28;20500;-66
2021/07/16 12:49:32;;;;;;;18.77;7.13;;;;;;;;;;4985807;28;20147;-66
2021/07/16 12:52:08;;;;;;;21.65;7.38;;;;;;;;;;4985942;28;20019;-66
2021/07/16 12:54:34;;;;;;;19.20;7.40;;;;;;;;;;4988877;28;20031;-65
2021/07/16 12:57:12;;;;;;;20.70;7.15;;;;;;;;;;4978931;28;20385;-65
2021/07/16 12:59:48;;;;;;;21.48;7.63;;;;;;;;;;4980691;28;20037;-66
2021/07/16 13:02:19;;;;;;;13.40;6.45;;;;;;;;;;4980484;28;20096;-66
2021/07/16 13:04:48;;;;;;;25.58;7.15;;;;;;;;;;4986523;28;20031;-66
2021/07/16 13:07:22;;;;;;;16.50;6.68;;;;;;;;;;4974072;28;20046;-66
2021/07/16 13:09:48;;;;;;;18.38;6.72;;;;;;;;;;4982668;28;20038;-65
2021/07/16 13:12:22;;;;;;;20.13;7.78;;;;;;;;;;4976567;28;20042;-66
2021/07/16 13:14:51;;;;;;;18.05;7.57;;;;;;;;;;4974074;28;20650;-66
2021/07/16 13:17:27;;;;;;;20.23;6.50;;;;;;;;;;4972248;28;20255;-66
2021/07/16 13:20:00;;;;;;;26.02;7.22;;;;;;;;;;4968342;28;20025;-66
2021/07/16 13:22:27;;;;;;;21.13;6.07;;;;;;;;;;4978475;28;20087;-66
2021/07/16 13:24:56;;;;;;;18.52;6.10;;;;;;;;;;4978085;28;20026;-65
2021/07/16 13:27:22;;;;;;;20.45;6.25;;;;;;;;;;4973728;28;20033;-66
2021/07/16 13:29:51;;;;;;;20.45;6.25;;;;;;;;;;4974346;28;20026;-66
2021/07/16 13:32:17;;;;;;;16.23;6.72;;;;;;;;;;4970717;28;20283;-66
2021/07/16 13:34:45;;;;;;;17.10;6.63;;;;;;;;;;4981951;28;20486;-66
2021/07/16 13:37:11;;;;;;;18.58;5.97;;;;;;;;;;4980710;28;20720;-66
2021/07/16 13:39:38;;;;;;;23.17;7.10;;;;;;;;;;4981350;28;20026;-66
2021/07/16 13:42:04;;;;;;;42.08;7.43;;;;;;;;;;4984646;28;20034;-66
2021/07/16 13:44:33;;;;;;;21.75;7.10;;;;;;;;;;4983059;28;20042;-66
2021/07/16 13:46:59;;;;;;;25.33;8.32;;;;;;;;;;4975612;28;20027;-66
2021/07/16 13:49:25;;;;;;;22.38;8.38;;;;;;;;;;4977873;28;20050;-66
2021/07/16 13:51:52;;;;;;;14.68;5.95;;;;;;;;;;4986724;28;20026;-66
2021/07/16 13:54:19;;;;;;;14.20;4.35;;;;;;;;;;4978396;28;20050;-65
2021/07/16 13:56:45;;;;;;;15.50;6.13;;;;;;;;;;4980208;28;20030;-66
2021/07/16 13:59:11;;;;;;;20.08;6.68;;;;;;;;;;4986440;28;20462;-66
2021/07/16 14:01:37;;;;;;;23.50;6.70;;;;;;;;;;4981390;28;20112;-66
2021/07/16 14:04:03;;;;;;;18.35;6.43;;;;;;;;;;4983309;28;20482;-66
2021/07/16 14:06:29;;;;;;;17.33;5.43;;;;;;;;;;4978641;28;20434;-66
2021/07/16 14:08:55;;;;;;;17.02;6.38;;;;;;;;;;4978558;28;20125;-66
2021/07/16 14:11:21;;;;;;;17.27;6.25;;;;;;;;;;4976599;28;20113;-65
2021/07/16 14:13:49;;;;;;;15.35;5.70;;;;;;;;;;4988114;28;20547;-65
2021/07/16 14:16:15;;;;;;;16.45;5.95;;;;;;;;;;4978618;28;20058;-66
2021/07/16 14:18:41;;;;;;;16.27;6.68;;;;;;;;;;4975113;28;20058;-66
2021/07/16 14:21:07;;;;;;;21.48;7.78;;;;;;;;;;4976283;28;20488;-66
2021/07/16 14:23:37;;;;;;;21.55;7.50;;;;;;;;;;4985403;28;20029;-66
2021/07/16 14:26:07;;;;;;;21.33;6.93;;;;;;;;;;4984209;28;20355;-66
2021/07/16 14:28:35;;;;;;;18.23;6.40;;;;;;;;;;4977300;28;20033;-66
2021/07/16 14:31:02;;;;;;;21.95;6.40;;;;;;;;;;4976027;28;20023;-66